createdAt,value
2023-03-25T00:00:57.891Z,6.38
2023-03-25T00:03:26.593Z,6.45
2023-03-25T00:05:55.065Z,4.47
2023-03-25T00:08:25.071Z,4.38
2023-03-25T00:10:54.426Z,4.88
2023-03-25T00:13:23.532Z,5.28
2023-03-25T00:15:53.808Z,5.05
2023-03-25T00:18:22.739Z,5.90
2023-03-25T00:20:51.401Z,5.20
2023-03-25T00:23:20.305Z,6.18
2023-03-25T00:25:52.840Z,5.47
2023-03-25T00:28:21.459Z,5.78
2023-03-25T00:30:49.676Z,6.03
2023-03-25T00:33:18.226Z,4.82
2023-03-25T00:35:49.474Z,4.50
2023-03-25T00:38:18.230Z,5.57
2023-03-25T00:40:48.567Z,4.57
2023-03-25T00:43:17.908Z,5.60
2023-03-25T00:45:46.084Z,4.60
2023-03-25T00:48:13.992Z,5.22
2023-03-25T00:50:42.622Z,5.65
2023-03-25T00:53:10.512Z,5.35
2023-03-25T00:55:38.729Z,10.65
2023-03-25T00:58:06.895Z,8.38
2023-03-25T01:00:36.390Z,7.30
2023-03-25T01:03:04.787Z,7.93
2023-03-25T01:05:33.183Z,7.32
2023-03-25T01:08:02.100Z,15.57
2023-03-25T01:10:30.369Z,4.95
2023-03-25T01:12:58.310Z,6.75
2023-03-25T01:15:26.505Z,5.93
2023-03-25T01:17:55.977Z,6.57
2023-03-25T01:20:24.326Z,6.40
2023-03-25T01:22:52.211Z,6.07
2023-03-25T01:25:20.445Z,7.35
2023-03-25T01:27:48.366Z,9.15
2023-03-25T01:30:17.081Z,10.75
2023-03-25T01:32:45.043Z,6.97
2023-03-25T01:35:14.608Z,6.63
2023-03-25T01:37:44.693Z,9.02
2023-03-25T01:40:19.409Z,7.13
2023-03-25T01:42:47.402Z,7.05
2023-03-25T01:45:21.281Z,8.70
2023-03-25T01:47:50.961Z,6.05
2023-03-25T01:50:21.427Z,6.30
2023-03-25T01:52:52.196Z,6.40
2023-03-25T01:55:21.222Z,6.13
2023-03-25T01:57:50.141Z,7.07
2023-03-25T02:00:19.273Z,6.45
2023-03-25T02:02:47.928Z,5.32
2023-03-25T02:05:21.648Z,7.38
2023-03-25T02:07:50.429Z,7.20
2023-03-25T02:10:20.013Z,6.78
2023-03-25T02:12:48.018Z,5.18
2023-03-25T02:15:18.811Z,5.82
2023-03-25T02:17:56.981Z,6.57
2023-03-25T02:20:57.569Z,6.78
2023-03-25T02:24:23.858Z,5.18
2023-03-25T02:27:14.265Z,5.60
2023-03-25T02:29:59.105Z,7.88
2023-03-25T02:32:46.524Z,5.53
2023-03-25T02:35:27.157Z,5.05
2023-03-25T02:38:24.681Z,7.35
2023-03-25T02:40:57.549Z,9.13
2023-03-25T02:43:29.973Z,5.75
2023-03-25T02:48:33.220Z,7.25
2023-03-25T02:51:05.164Z,6.63
2023-03-25T02:53:36.534Z,5.90
2023-03-25T02:56:08.866Z,7.10
2023-03-25T02:58:38.360Z,7.57
2023-03-25T03:01:10.307Z,8.10
2023-03-25T03:03:38.646Z,6.50
2023-03-25T03:06:08.635Z,8.05
2023-03-25T03:08:48.544Z,8.23
2023-03-25T03:11:20.082Z,7.32
2023-03-25T03:14:04.559Z,9.20
2023-03-25T03:16:36.791Z,7.35
2023-03-25T03:19:14.307Z,8.15
2023-03-25T03:21:47.360Z,9.23
2023-03-25T03:24:22.632Z,13.00
2023-03-25T03:26:55.267Z,12.23
2023-03-25T03:29:27.598Z,10.93
2023-03-25T03:32:05.488Z,13.40
2023-03-25T03:34:41.130Z,12.57
2023-03-25T03:37:10.381Z,13.35
2023-03-25T03:39:40.543Z,13.15
2023-03-25T03:42:14.150Z,14.10
2023-03-25T03:44:45.169Z,15.05
2023-03-25T03:47:16.114Z,16.27
2023-03-25T03:49:47.636Z,15.95
2023-03-25T03:52:18.393Z,16.53
2023-03-25T03:54:50.662Z,19.45
2023-03-25T03:57:22.090Z,17.30
2023-03-25T03:59:57.578Z,17.75
2023-03-25T04:02:28.695Z,22.35
2023-03-25T04:05:00.463Z,17.23
2023-03-25T04:07:38.998Z,17.42
2023-03-25T04:10:15.610Z,18.67
2023-03-25T04:12:45.959Z,17.13
2023-03-25T04:15:15.715Z,10.77
2023-03-25T04:17:43.951Z,11.27
2023-03-25T04:20:15.909Z,13.20
2023-03-25T04:22:45.335Z,10.30
2023-03-25T04:25:15.398Z,12.40
2023-03-25T04:27:48.934Z,9.68
2023-03-25T04:30:19.103Z,14.25
2023-03-25T04:32:47.431Z,10.10
2023-03-25T04:35:16.860Z,10.80
2023-03-25T04:37:46.047Z,9.23
2023-03-25T04:40:18.709Z,9.30
2023-03-25T04:42:47.095Z,7.90
2023-03-25T04:45:16.833Z,7.25
2023-03-25T04:47:47.049Z,6.25
2023-03-25T04:50:22.033Z,6.68
2023-03-25T04:52:50.435Z,6.75
2023-03-25T04:55:20.106Z,7.68
2023-03-25T04:57:49.067Z,8.13
2023-03-25T05:00:19.737Z,6.38
2023-03-25T05:02:48.817Z,11.38
2023-03-25T05:05:19.573Z,6.60
2023-03-25T05:07:49.335Z,6.70
2023-03-25T05:10:20.704Z,8.02
2023-03-25T05:12:48.935Z,7.75
2023-03-25T05:15:18.566Z,10.18
2023-03-25T05:17:46.667Z,6.93
2023-03-25T05:20:16.203Z,7.90
2023-03-25T05:22:45.656Z,8.05
2023-03-25T05:25:13.910Z,16.55
2023-03-25T05:27:43.131Z,10.27
2023-03-25T05:30:12.939Z,11.02
2023-03-25T05:32:41.554Z,9.18
2023-03-25T05:35:10.622Z,8.05
2023-03-25T05:37:38.884Z,10.85
2023-03-25T05:40:15.004Z,11.88
2023-03-25T05:42:49.080Z,8.82
2023-03-25T05:45:17.828Z,9.57
2023-03-25T05:47:46.089Z,12.98
2023-03-25T05:50:15.485Z,9.95
2023-03-25T05:52:43.997Z,10.25
2023-03-25T05:55:14.191Z,13.48
2023-03-25T05:57:42.169Z,9.32
2023-03-25T06:00:13.765Z,10.10
2023-03-25T06:02:43.255Z,9.32
2023-03-25T06:05:14.032Z,13.32
2023-03-25T06:07:43.575Z,12.23
2023-03-25T06:10:12.074Z,7.15
2023-03-25T06:12:40.682Z,10.05
2023-03-25T06:15:13.011Z,9.07
2023-03-25T06:17:41.279Z,8.27
2023-03-25T06:20:12.641Z,7.80
2023-03-25T06:22:42.861Z,8.40
2023-03-25T06:25:12.686Z,7.07
2023-03-25T06:27:41.259Z,11.85
2023-03-25T06:30:10.936Z,9.57
2023-03-25T06:32:41.278Z,8.32
2023-03-25T06:35:12.020Z,53.35
2023-03-25T06:37:40.714Z,10.20
2023-03-25T06:40:10.362Z,11.57
2023-03-25T06:42:38.407Z,14.32
2023-03-25T06:45:08.430Z,7.25
2023-03-25T06:47:36.558Z,8.95
2023-03-25T06:50:07.850Z,7.43
2023-03-25T06:52:36.051Z,12.05
2023-03-25T06:55:04.574Z,21.98
2023-03-25T06:57:32.533Z,21.52
2023-03-25T07:00:01.028Z,10.45
2023-03-25T07:02:29.066Z,9.05
2023-03-25T07:04:57.339Z,11.07
2023-03-25T07:07:26.941Z,15.18
2023-03-25T07:09:56.042Z,20.30
2023-03-25T07:12:24.488Z,12.10
2023-03-25T07:14:53.342Z,14.07
2023-03-25T07:17:21.384Z,12.70
2023-03-25T07:19:49.995Z,17.90
2023-03-25T07:22:18.317Z,11.93
2023-03-25T07:24:47.875Z,10.90
2023-03-25T07:27:16.706Z,10.70
2023-03-25T07:29:44.905Z,14.43
2023-03-25T07:32:13.006Z,10.18
2023-03-25T07:34:41.509Z,9.13
2023-03-25T07:37:10.352Z,11.05
2023-03-25T07:39:38.670Z,14.75
2023-03-25T07:42:08.263Z,12.70
2023-03-25T07:44:36.588Z,10.88
2023-03-25T07:47:04.693Z,11.00
2023-03-25T07:49:32.990Z,9.35
2023-03-25T07:52:01.030Z,9.60
2023-03-25T07:54:29.405Z,8.35
2023-03-25T07:56:57.515Z,13.48
2023-03-25T07:59:29.249Z,7.97
2023-03-25T08:01:58.434Z,7.43
2023-03-25T08:04:26.788Z,10.30
2023-03-25T08:06:54.746Z,8.57
2023-03-25T08:09:23.207Z,9.88
2023-03-25T08:11:51.434Z,8.10
2023-03-25T08:14:20.023Z,7.55
2023-03-25T08:16:49.438Z,9.35
2023-03-25T08:19:17.790Z,7.78
2023-03-25T08:21:45.770Z,5.40
2023-03-25T08:24:14.076Z,6.90
2023-03-25T08:26:42.166Z,9.45
2023-03-25T08:29:11.246Z,7.82
2023-03-25T08:31:40.504Z,5.53
2023-03-25T08:34:10.611Z,6.60
2023-03-25T08:36:39.482Z,7.07
2023-03-25T08:39:11.845Z,6.55
2023-03-25T08:41:40.296Z,9.30
2023-03-25T08:44:08.730Z,7.38
2023-03-25T08:46:37.241Z,4.30
2023-03-25T08:49:06.526Z,6.72
2023-03-25T08:51:35.853Z,6.22
2023-03-25T08:54:04.093Z,4.15
2023-03-25T08:56:32.312Z,5.95
2023-03-25T08:59:00.699Z,7.70
2023-03-25T09:01:29.307Z,3.85
2023-03-25T09:03:57.993Z,5.88
2023-03-25T09:06:26.605Z,4.45
2023-03-25T09:08:56.975Z,4.40
2023-03-25T09:11:34.387Z,3.75
2023-03-25T09:14:05.565Z,4.10
2023-03-25T09:16:34.249Z,4.72
2023-03-25T09:19:03.714Z,4.50
2023-03-25T09:21:31.900Z,5.50
2023-03-25T09:24:01.388Z,3.53
2023-03-25T09:26:29.458Z,6.60
2023-03-25T09:28:57.781Z,3.53
2023-03-25T09:31:26.177Z,5.45
2023-03-25T09:33:54.563Z,8.55
2023-03-25T09:36:22.567Z,7.10
2023-03-25T09:38:50.906Z,3.53
2023-03-25T09:41:32.683Z,5.20
2023-03-25T09:44:06.524Z,4.32
2023-03-25T09:46:34.933Z,7.57
2023-03-25T09:49:03.734Z,8.60
2023-03-25T09:51:35.925Z,6.00
2023-03-25T09:54:09.812Z,4.18
2023-03-25T09:56:42.390Z,6.60
2023-03-25T09:59:14.975Z,5.93
2023-03-25T10:04:49.177Z,7.25
2023-03-25T10:07:36.157Z,3.90
2023-03-25T10:10:09.579Z,5.68
2023-03-25T10:12:44.942Z,6.65
2023-03-25T10:15:21.510Z,6.65
2023-03-25T10:18:02.101Z,5.93
2023-03-25T10:20:41.855Z,4.70
2023-03-25T10:23:15.628Z,10.45
2023-03-25T10:25:46.996Z,6.25
2023-03-25T10:28:20.691Z,8.80
2023-03-25T10:30:51.267Z,7.38
2023-03-25T10:33:24.956Z,5.18
2023-03-25T10:35:53.517Z,2.58
2023-03-25T10:38:24.105Z,5.72
2023-03-25T10:40:53.986Z,5.97
2023-03-25T10:43:28.454Z,10.30
2023-03-25T10:45:59.338Z,4.25
2023-03-25T10:48:29.171Z,6.78
2023-03-25T10:51:03.973Z,6.78
2023-03-25T10:53:32.136Z,5.97
2023-03-25T10:56:04.960Z,7.07
2023-03-25T10:58:35.852Z,4.20
2023-03-25T11:01:11.507Z,3.57
2023-03-25T11:03:40.978Z,4.95
2023-03-25T11:06:18.791Z,5.78
2023-03-25T11:08:58.464Z,6.05
2023-03-25T11:11:33.662Z,5.70
2023-03-25T11:14:03.720Z,7.32
2023-03-25T11:16:34.124Z,5.60
2023-03-25T11:19:03.045Z,4.82
2023-03-25T11:21:33.936Z,5.35
2023-03-25T11:24:02.366Z,4.25
2023-03-25T11:26:36.697Z,2.83
2023-03-25T11:29:08.654Z,2.25
2023-03-25T11:34:08.060Z,2.78
2023-03-25T11:36:38.001Z,3.25
2023-03-25T11:39:17.091Z,2.72
2023-03-25T11:41:45.602Z,2.42
2023-03-25T11:44:22.801Z,1.95
2023-03-25T11:46:52.374Z,5.28
2023-03-25T11:49:22.792Z,1.80
2023-03-25T11:51:52.894Z,3.30
2023-03-25T11:54:21.134Z,5.15
2023-03-25T11:56:51.213Z,3.90
2023-03-25T11:59:24.787Z,4.93
2023-03-25T12:02:01.355Z,3.08
2023-03-25T12:04:29.434Z,3.40
2023-03-25T12:07:00.185Z,3.17
2023-03-25T12:09:30.700Z,4.68
2023-03-25T12:12:19.252Z,5.43
2023-03-25T12:14:55.223Z,4.07
2023-03-25T12:17:32.386Z,4.18
2023-03-25T12:20:08.290Z,3.90
2023-03-25T12:22:48.491Z,3.65
2023-03-25T12:25:23.629Z,6.25
2023-03-25T12:28:00.991Z,2.67
2023-03-25T12:30:38.046Z,6.07
2023-03-25T12:33:13.748Z,5.70
2023-03-25T12:35:45.304Z,6.30
2023-03-25T12:40:57.066Z,4.78
2023-03-25T12:43:32.060Z,4.40
2023-03-25T12:46:14.333Z,1.95
2023-03-25T12:48:52.040Z,2.45
2023-03-25T12:51:27.158Z,3.28
2023-03-25T12:54:01.410Z,7.40
2023-03-25T12:56:43.196Z,2.08
2023-03-25T12:59:41.644Z,10.23
2023-03-25T13:02:21.287Z,4.72
2023-03-25T13:05:02.919Z,2.70
2023-03-25T13:07:35.426Z,3.28
2023-03-25T13:10:08.887Z,1.48
2023-03-25T13:12:41.022Z,3.28
2023-03-25T13:15:24.681Z,6.00
2023-03-25T13:17:58.042Z,1.52
2023-03-25T13:20:27.382Z,1.13
2023-03-25T13:23:01.587Z,2.03
2023-03-25T13:25:33.586Z,2.40
2023-03-25T13:28:05.186Z,2.42
2023-03-25T13:30:37.594Z,2.30
2023-03-25T13:33:13.692Z,5.60
2023-03-25T13:35:45.758Z,3.42
2023-03-25T13:38:18.678Z,39.67
2023-03-25T13:40:52.531Z,8.00
2023-03-25T13:43:27.796Z,5.97
2023-03-25T13:46:01.104Z,4.25
2023-03-25T13:48:34.291Z,3.85
2023-03-25T13:51:04.866Z,3.63
2023-03-25T13:53:37.477Z,5.00
2023-03-25T13:56:32.346Z,2.08
2023-03-25T13:59:11.262Z,3.10
2023-03-25T14:01:51.292Z,4.78
2023-03-25T14:04:30.800Z,6.00
2023-03-25T14:07:22.791Z,4.38
2023-03-25T14:10:23.805Z,4.60
2023-03-25T14:12:53.753Z,6.45
2023-03-25T14:15:23.882Z,18.08
2023-03-25T14:17:54.280Z,6.18
2023-03-25T14:20:26.016Z,6.13
2023-03-25T14:22:57.571Z,4.97
2023-03-25T14:25:33.005Z,8.17
2023-03-25T14:28:02.305Z,5.60
2023-03-25T14:30:31.012Z,4.07
2023-03-25T14:33:00.778Z,6.03
2023-03-25T14:36:00.331Z,2.13
2023-03-25T14:38:58.541Z,5.88
2023-03-25T14:41:57.829Z,6.70
2023-03-25T14:44:33.022Z,3.63
2023-03-25T14:47:02.905Z,3.08
2023-03-25T14:49:54.081Z,5.13
2023-03-25T14:52:29.734Z,3.75
2023-03-25T14:54:58.070Z,4.03
2023-03-25T14:57:28.586Z,3.63
2023-03-25T15:00:03.105Z,4.07
2023-03-25T15:02:33.148Z,5.07
2023-03-25T15:05:04.698Z,4.97
2023-03-25T15:07:48.180Z,3.50
2023-03-25T15:10:28.023Z,6.18
2023-03-25T15:13:01.634Z,5.05
2023-03-25T15:15:36.264Z,4.07
2023-03-25T15:18:04.568Z,5.28
2023-03-25T15:20:37.715Z,2.80
2023-03-25T15:23:33.572Z,2.92
2023-03-25T15:26:02.856Z,5.22
2023-03-25T15:28:44.035Z,6.75
2023-03-25T15:31:22.068Z,7.57
2023-03-25T15:34:11.504Z,4.53
2023-03-25T15:37:04.226Z,4.82
2023-03-25T15:42:44.994Z,5.82
2023-03-25T15:45:32.483Z,4.97
2023-03-25T15:48:39.800Z,8.88
2023-03-25T15:51:29.590Z,6.60
2023-03-25T15:54:09.166Z,10.85
2023-03-25T15:56:42.246Z,3.55
2023-03-25T15:59:21.735Z,4.32
2023-03-25T16:01:51.828Z,5.35
2023-03-25T16:04:22.894Z,5.05
2023-03-25T16:06:54.480Z,5.05
2023-03-25T16:09:28.537Z,5.13
2023-03-25T16:12:01.740Z,7.85
2023-03-25T16:14:31.604Z,7.47
2023-03-25T16:17:01.225Z,7.75
2023-03-25T16:19:35.976Z,5.57
2023-03-25T16:22:08.434Z,5.97
2023-03-25T16:24:37.109Z,5.85
2023-03-25T16:27:12.936Z,3.83
2023-03-25T16:29:41.458Z,6.68
2023-03-25T16:32:19.442Z,7.70
2023-03-25T16:34:48.427Z,6.90
2023-03-25T16:37:17.896Z,5.65
2023-03-25T16:39:50.872Z,4.75
2023-03-25T16:42:26.352Z,6.45
2023-03-25T16:44:55.541Z,10.77
2023-03-25T16:47:24.434Z,8.77
2023-03-25T16:49:54.874Z,5.85
2023-03-25T16:52:26.728Z,7.88
2023-03-25T16:55:28.334Z,9.82
2023-03-25T16:58:00.855Z,8.77
2023-03-25T17:00:39.890Z,8.45
2023-03-25T17:03:15.298Z,10.25
2023-03-25T17:05:56.848Z,8.65
2023-03-25T17:08:25.172Z,7.10
2023-03-25T17:10:57.144Z,9.07
2023-03-25T17:13:29.759Z,6.20
2023-03-25T17:15:58.615Z,11.40
2023-03-25T17:18:29.987Z,10.25
2023-03-25T17:21:00.261Z,14.07
2023-03-25T17:23:35.869Z,10.18
2023-03-25T17:26:07.614Z,9.73
2023-03-25T17:28:39.085Z,9.53
2023-03-25T17:31:25.715Z,10.93
2023-03-25T17:33:59.425Z,13.57
2023-03-25T17:36:30.052Z,9.43
2023-03-25T17:38:59.462Z,9.20
2023-03-25T17:41:30.892Z,8.95
2023-03-25T17:44:01.708Z,11.13
2023-03-25T17:46:32.065Z,10.88
2023-03-25T17:49:00.779Z,12.70
2023-03-25T17:51:30.548Z,9.43
2023-03-25T17:53:59.239Z,11.48
2023-03-25T17:56:28.717Z,11.57
2023-03-25T17:59:01.605Z,17.02
2023-03-25T18:01:30.749Z,16.52
2023-03-25T18:03:59.061Z,12.07
2023-03-25T18:06:27.738Z,17.00
2023-03-25T18:08:55.844Z,16.02
2023-03-25T18:11:24.101Z,14.52
2023-03-25T18:13:52.238Z,12.20
2023-03-25T18:16:22.833Z,17.70
2023-03-25T18:18:50.962Z,13.80
2023-03-25T18:21:21.018Z,14.90
2023-03-25T18:23:49.380Z,14.65
2023-03-25T18:26:19.036Z,19.60
2023-03-25T18:28:47.703Z,19.58
2023-03-25T18:31:17.669Z,19.95
2023-03-25T18:33:48.488Z,22.00
2023-03-25T18:36:18.273Z,20.85
2023-03-25T18:38:47.718Z,18.67
2023-03-25T18:41:17.414Z,19.90
2023-03-25T18:43:46.017Z,27.45
2023-03-25T18:46:14.838Z,27.42
2023-03-25T18:48:43.650Z,27.17
2023-03-25T18:51:14.453Z,24.25
2023-03-25T18:53:42.894Z,20.10
2023-03-25T18:56:11.704Z,20.95
2023-03-25T18:58:39.841Z,32.20
2023-03-25T19:01:09.914Z,15.27
2023-03-25T19:03:39.645Z,16.38
2023-03-25T19:06:10.309Z,12.13
2023-03-25T19:08:40.145Z,14.68
2023-03-25T19:11:19.834Z,12.82
2023-03-25T19:13:49.139Z,9.32
2023-03-25T19:16:17.714Z,11.25
2023-03-25T19:18:46.841Z,16.52
2023-03-25T19:21:17.102Z,10.15
2023-03-25T19:23:46.571Z,12.20
2023-03-25T19:26:15.347Z,11.70
2023-03-25T19:28:44.115Z,13.60
2023-03-25T19:31:15.685Z,14.32
2023-03-25T19:33:44.127Z,15.02
2023-03-25T19:36:15.201Z,14.45
2023-03-25T19:38:43.948Z,18.83
2023-03-25T19:41:15.463Z,15.18
2023-03-25T19:43:43.835Z,14.60
2023-03-25T19:46:12.766Z,19.83
2023-03-25T19:48:40.902Z,17.25
2023-03-25T19:51:09.180Z,19.33
2023-03-25T19:53:37.397Z,15.77
2023-03-25T19:56:06.335Z,20.25
2023-03-25T19:58:35.736Z,13.30
2023-03-25T20:01:04.348Z,13.68
2023-03-25T20:03:32.992Z,14.60
2023-03-25T20:06:02.536Z,19.27
2023-03-25T20:08:32.061Z,20.15
2023-03-25T20:11:00.945Z,18.52
2023-03-25T20:13:29.089Z,18.33
2023-03-25T20:15:58.948Z,20.48
2023-03-25T20:18:27.060Z,22.63
2023-03-25T20:20:55.323Z,19.08
2023-03-25T20:23:23.413Z,23.27
2023-03-25T20:25:52.356Z,21.10
2023-03-25T20:28:20.697Z,25.15
2023-03-25T20:30:49.079Z,23.88
2023-03-25T20:33:18.742Z,19.85
2023-03-25T20:35:47.249Z,23.13
2023-03-25T20:38:15.844Z,23.10
2023-03-25T20:40:45.194Z,26.75
2023-03-25T20:43:14.288Z,31.73
2023-03-25T20:45:44.056Z,34.22
2023-03-25T20:48:12.173Z,26.73
2023-03-25T20:50:41.788Z,36.40
2023-03-25T20:53:09.876Z,30.95
2023-03-25T20:55:38.053Z,30.65
2023-03-25T20:58:06.928Z,25.70
2023-03-25T21:00:35.284Z,30.35
2023-03-25T21:03:03.743Z,26.50
2023-03-25T21:05:32.242Z,26.00
2023-03-25T21:08:01.849Z,22.80
2023-03-25T21:10:30.109Z,19.63
2023-03-25T21:12:58.237Z,22.83
2023-03-25T21:15:27.230Z,24.65
2023-03-25T21:17:55.524Z,26.23
2023-03-25T21:20:27.030Z,24.15
2023-03-25T21:22:59.214Z,16.52
2023-03-25T21:25:34.143Z,23.23
2023-03-25T21:28:03.918Z,20.40
2023-03-25T21:30:32.740Z,23.77
2023-03-25T21:33:00.685Z,23.25
2023-03-25T21:35:29.432Z,22.20
2023-03-25T21:38:00.790Z,22.52
2023-03-25T21:40:39.912Z,23.17
2023-03-25T21:43:08.450Z,19.17
2023-03-25T21:45:36.952Z,20.58
2023-03-25T21:48:05.223Z,14.43
2023-03-25T21:50:34.249Z,14.52
2023-03-25T21:53:05.631Z,14.98
2023-03-25T21:55:38.373Z,15.35
2023-03-25T21:58:06.394Z,12.30
2023-03-25T22:00:34.619Z,13.15
2023-03-25T22:03:03.027Z,6.68
2023-03-25T22:05:32.800Z,7.75
2023-03-25T22:08:00.915Z,3.13
2023-03-25T22:10:29.226Z,5.05
2023-03-25T22:12:58.815Z,3.75
2023-03-25T22:15:27.109Z,5.30
2023-03-25T22:17:55.127Z,3.38
2023-03-25T22:20:23.558Z,5.95
2023-03-25T22:22:53.693Z,2.63
2023-03-25T22:25:21.890Z,2.97
2023-03-25T22:27:50.338Z,5.15
2023-03-25T22:30:19.889Z,5.57
2023-03-25T22:32:47.799Z,2.80
2023-03-25T22:35:17.301Z,7.82
2023-03-25T22:37:45.621Z,3.33
2023-03-25T22:40:15.005Z,1.98
2023-03-25T22:42:42.973Z,2.90
2023-03-25T22:45:12.202Z,2.22
2023-03-25T22:47:41.725Z,2.78
2023-03-25T22:50:11.198Z,2.47
2023-03-25T22:52:40.786Z,2.35
2023-03-25T22:55:10.021Z,1.95
2023-03-25T22:57:38.095Z,2.90
2023-03-25T23:00:12.651Z,4.82
2023-03-25T23:02:42.541Z,1.55
2023-03-25T23:05:11.254Z,2.45
2023-03-25T23:07:39.213Z,2.35
2023-03-25T23:10:09.021Z,1.40
2023-03-25T23:12:37.092Z,2.58
2023-03-25T23:15:06.330Z,1.80
2023-03-25T23:17:35.063Z,2.53
2023-03-25T23:20:07.079Z,2.13
2023-03-25T23:22:35.608Z,2.55
2023-03-25T23:25:05.049Z,1.90
2023-03-25T23:27:33.752Z,3.40
2023-03-25T23:30:03.061Z,2.42
2023-03-25T23:32:31.178Z,2.70
2023-03-25T23:34:59.926Z,3.67
2023-03-25T23:37:29.945Z,3.80
2023-03-25T23:39:58.110Z,4.18
2023-03-25T23:42:34.819Z,5.35
2023-03-25T23:45:04.333Z,5.00
2023-03-25T23:47:32.378Z,3.47
2023-03-25T23:50:02.018Z,3.80
2023-03-25T23:52:33.413Z,3.97
2023-03-25T23:55:01.702Z,3.30
2023-03-25T23:57:30.398Z,5.07
2023-03-25T23:59:58.826Z,3.78
